Time;durP1;ratioP1;P1;durP2;ratioP2;P2;SDS_P1;SDS_P2;PMS_P1;PMS_P2;Temp;Humidity;BMP_temperature;BMP_pressure;BME280_temperature;BME280_humidity;BME280_pressure;Samples;Min_cycle;Max_cycle;Signal;HPM_P1;HPM_P2
2024/03/03 00:01:21;;;;;;;0.10;0.10;;;;;;;;;;4979677;28;20037;-93
2024/03/03 00:03:47;;;;;;;0.00;0.00;;;;;;;;;;4985985;28;20058;-93
2024/03/03 00:06:13;;;;;;;0.10;0.10;;;;;;;;;;4989915;28;20102;-92
2024/03/03 00:08:42;;;;;;;0.00;0.00;;;;;;;;;;4989215;28;20042;-93
2024/03/03 00:11:08;;;;;;;0.10;0.10;;;;;;;;;;4990397;28;20022;-94
2024/03/03 00:13:36;;;;;;;0.10;0.10;;;;;;;;;;4989026;28;20058;-94
2024/03/03 00:16:04;;;;;;;0.10;0.10;;;;;;;;;;4985367;28;20031;-93
2024/03/03 00:18:37;;;;;;;0.00;0.00;;;;;;;;;;4981274;28;20094;-92
2024/03/03 00:21:11;;;;;;;0.00;0.00;;;7.50;99.90;;;;;;4987754;28;20041;-93
2024/03/03 00:23:42;;;;;;;0.10;0.10;;;;;;;;;;4985504;28;20064;-93
2024/03/03 00:26:08;;;;;;;0.00;0.00;;;;;;;;;;4985571;28;20058;-94
2024/03/03 00:28:34;;;;;;;0.00;0.00;;;;;;;;;;4995839;28;20026;-93
2024/03/03 00:31:00;;;;;;;0.10;0.10;;;;;;;;;;4987805;28;20025;-94
2024/03/03 00:33:26;;;;;;;0.00;0.00;;;;;;;;;;4990771;28;20023;-93
2024/03/03 00:35:52;;;;;;;0.10;0.10;;;;;;;;;;4987961;28;20027;-93
2024/03/03 00:38:18;;;;;;;0.10;0.10;;;;;;;;;;4988908;28;20062;-93
2024/03/03 00:40:44;;;;;;;0.03;0.03;;;;;;;;;;4984581;28;20062;-93
2024/03/03 00:43:10;;;;;;;0.10;0.10;;;;;;;;;;4992169;28;20045;-93
2024/03/03 00:45:39;;;;;;;0.00;0.00;;;;;;;;;;4989747;28;20034;-93
2024/03/03 00:48:05;;;;;;;0.10;0.10;;;;;;;;;;4988567;28;20408;-94
2024/03/03 00:50:31;;;;;;;0.10;0.10;;;;;;;;;;4988468;28;20046;-92
2024/03/03 00:52:57;;;;;;;0.10;0.10;;;;;;;;;;4980767;28;20411;-93
2024/03/03 00:55:25;;;;;;;0.10;0.10;;;;;;;;;;4986083;28;20605;-92
2024/03/03 00:57:54;;;;;;;0.10;0.10;;;;;;;;;;4989225;28;20036;-93
2024/03/03 01:00:20;;;;;;;0.10;0.10;;;;;;;;;;4983729;28;20390;-94
2024/03/03 01:02:48;;;;;;;0.10;0.10;;;;;;;;;;4989199;28;20035;-93
2024/03/03 01:05:14;;;;;;;0.10;0.10;;;;;;;;;;4987699;28;20034;-92
2024/03/03 01:07:40;;;;;;;0.00;0.00;;;;;;;;;;4992655;28;20014;-93
2024/03/03 01:10:07;;;;;;;0.10;0.10;;;;;;;;;;4988503;28;20018;-93
2024/03/03 01:12:33;;;;;;;0.10;0.10;;;;;;;;;;4990832;28;20038;-92
2024/03/03 01:14:59;;;;;;;0.10;0.10;;;;;;;;;;4990611;28;20030;-94
2024/03/03 01:17:25;;;;;;;0.10;0.10;;;;;;;;;;4995327;28;20035;-93
2024/03/03 01:19:51;;;;;;;0.10;0.10;;;;;;;;;;4989977;28;20038;-94
2024/03/03 01:22:17;;;;;;;0.10;0.10;;;;;;;;;;4986754;28;20045;-93
2024/03/03 01:24:43;;;;;;;0.10;0.10;;;;;;;;;;4991536;28;20023;-93
2024/03/03 01:27:09;;;;;;;0.10;0.10;;;;;;;;;;4988593;28;20031;-93
2024/03/03 01:29:35;;;;;;;0.10;0.10;;;;;;;;;;4988994;28;20031;-93
2024/03/03 01:32:04;;;;;;;0.10;0.10;;;;;;;;;;4988998;28;20030;-94
2024/03/03 01:34:30;;;;;;;0.10;0.10;;;;;;;;;;4989319;28;20030;-95
2024/03/03 01:36:56;;;;;;;0.10;0.10;;;;;;;;;;5000043;28;20017;-93
2024/03/03 01:39:24;;;;;;;0.00;0.00;;;;;;;;;;4997189;28;20054;-93
2024/03/03 01:41:51;;;;;;;0.10;0.10;;;;;;;;;;4990617;28;20039;-93
2024/03/03 01:44:17;;;;;;;0.10;0.10;;;;;;;;;;4994149;28;20046;-92
2024/03/03 01:46:43;;;;;;;0.10;0.10;;;;;;;;;;4997462;28;20027;-93
2024/03/03 01:49:12;;;;;;;0.10;0.10;;;6.90;99.90;;;;;;5004947;28;20096;-94
2024/03/03 01:51:41;;;;;;;0.10;0.10;;;;;;;;;;4990476;28;20065;-93
2024/03/03 01:54:07;;;;;;;0.10;0.10;;;;;;;;;;4994822;28;20122;-94
2024/03/03 01:56:33;;;;;;;0.10;0.10;;;;;;;;;;4997038;28;20030;-93
2024/03/03 01:59:01;;;;;;;0.10;0.10;;;;;;;;;;5004798;28;20031;-93
2024/03/03 02:01:29;;;;;;;0.05;0.05;;;6.70;99.90;;;;;;4994400;28;20102;-93
2024/03/03 02:03:56;;;;;;;0.10;0.10;;;6.70;99.90;;;;;;4996210;28;20035;-93
2024/03/03 02:06:24;;;;;;;0.10;0.10;;;6.60;99.90;;;;;;4994205;28;20027;-93
2024/03/03 02:08:50;;;;;;;0.10;0.10;;;;;;;;;;4999008;28;20019;-93
2024/03/03 02:11:16;;;;;;;0.10;0.10;;;;;;;;;;4989009;28;20030;-93
2024/03/03 02:13:42;;;;;;;0.10;0.10;;;;;;;;;;4988425;28;20023;-93
2024/03/03 02:16:08;;;;;;;0.10;0.10;;;;;;;;;;4989535;28;20100;-93
2024/03/03 02:18:37;;;;;;;0.10;0.10;;;;;;;;;;4991749;28;20030;-93
2024/03/03 02:21:03;;;;;;;0.10;0.10;;;;;;;;;;4996105;28;20019;-94
2024/03/03 02:23:31;;;;;;;0.10;0.10;;;;;;;;;;4991545;28;20030;-93
2024/03/03 02:25:58;;;;;;;0.10;0.10;;;;;;;;;;4988649;28;20031;-93
2024/03/03 02:28:25;;;;;;;0.10;0.10;;;;;;;;;;4991145;28;20042;-92
2024/03/03 02:30:53;;;;;;;0.10;0.10;;;;;;;;;;4996053;28;20529;-93
2024/03/03 02:33:22;;;;;;;0.10;0.10;;;;;;;;;;4990081;28;20030;-94
2024/03/03 02:35:48;;;;;;;0.10;0.10;;;;;;;;;;4991873;28;20025;-93
2024/03/03 02:38:14;;;;;;;0.10;0.10;;;;;;;;;;4993760;28;20031;-93
2024/03/03 02:40:40;;;;;;;0.10;0.10;;;;;;;;;;4991372;28;21557;-93
2024/03/03 02:43:08;;;;;;;0.10;0.10;;;6.20;99.90;;;;;;4992363;28;20101;-94
2024/03/03 02:45:33;;;;;;;0.10;0.10;;;;;;;;;;4988444;28;20094;-93
2024/03/03 02:47:59;;;;;;;0.10;0.10;;;;;;;;;;4989669;28;20018;-93
2024/03/03 02:50:25;;;;;;;0.00;0.00;;;;;;;;;;4992071;28;20088;-93
2024/03/03 02:52:51;;;;;;;0.10;0.10;;;;;;;;;;4991796;28;20042;-93
2024/03/03 02:55:17;;;;;;;0.10;0.10;;;;;;;;;;4989796;28;20027;-94
2024/03/03 02:57:43;;;;;;;0.10;0.10;;;;;;;;;;5004960;28;20054;-93
2024/03/03 03:00:13;;;;;;;0.10;0.10;;;;;;;;;;4989053;28;20035;-94
2024/03/03 03:02:46;;;;;;;0.10;0.10;;;;;;;;;;4989239;28;20082;-93
2024/03/03 03:05:12;;;;;;;0.10;0.10;;;;;;;;;;4989340;28;20038;-93
2024/03/03 03:07:38;;;;;;;0.10;0.10;;;;;;;;;;4983991;28;20038;-93
2024/03/03 03:10:04;;;;;;;0.10;0.10;;;;;;;;;;4988419;28;20054;-94
2024/03/03 03:12:30;;;;;;;0.10;0.10;;;;;;;;;;4986301;28;20033;-94
2024/03/03 03:14:56;;;;;;;0.10;0.10;;;;;;;;;;4990886;28;20046;-93
2024/03/03 03:17:22;;;;;;;0.10;0.10;;;;;;;;;;4990368;28;20041;-93
2024/03/03 03:19:48;;;;;;;0.10;0.10;;;;;;;;;;4989577;28;20030;-93
2024/03/03 03:22:13;;;;;;;0.10;0.10;;;;;;;;;;4992708;28;20030;-93
2024/03/03 03:24:39;;;;;;;0.10;0.10;;;;;;;;;;4989842;28;20051;-93
2024/03/03 03:27:05;;;;;;;0.10;0.10;;;;;;;;;;4989524;28;20030;-93
2024/03/03 03:29:31;;;;;;;0.10;0.10;;;;;;;;;;4993539;28;20034;-92
2024/03/03 03:31:57;;;;;;;0.10;0.10;;;;;;;;;;4993131;28;20111;-94
2024/03/03 03:34:23;;;;;;;0.10;0.10;;;;;;;;;;4989185;28;20054;-93
2024/03/03 03:36:49;;;;;;;0.10;0.10;;;;;;;;;;5006896;28;20041;-94
2024/03/03 03:39:15;;;;;;;0.10;0.10;;;;;;;;;;4995738;28;20124;-93
2024/03/03 03:41:48;;;;;;;0.10;0.10;;;;;;;;;;4987502;28;20133;-93
2024/03/03 03:44:14;;;;;;;0.10;0.10;;;;;;;;;;4986154;28;20030;-94
2024/03/03 03:46:40;;;;;;;0.10;0.10;;;;;;;;;;4983887;28;20093;-94
2024/03/03 03:49:10;;;;;;;0.10;0.10;;;;;;;;;;4990890;28;20023;-93
2024/03/03 03:51:36;;;;;;;0.10;0.10;;;;;;;;;;4988593;28;20053;-94
2024/03/03 03:54:03;;;;;;;0.10;0.10;;;;;;;;;;4988608;28;20027;-93
2024/03/03 03:56:29;;;;;;;0.10;0.10;;;;;;;;;;4991014;28;20023;-92
2024/03/03 03:58:55;;;;;;;0.10;0.10;;;;;;;;;;4993552;28;20050;-94
2024/03/03 04:01:21;;;;;;;0.10;0.10;;;;;;;;;;4988316;28;20544;-93
2024/03/03 04:03:48;;;;;;;0.10;0.10;;;;;;;;;;4990336;28;20054;-93
2024/03/03 04:06:14;;;;;;;0.00;0.00;;;6.10;99.90;;;;;;4988830;28;20111;-95
2024/03/03 04:08:41;;;;;;;0.00;0.00;;;;;;;;;;4980825;28;20031;-93
2024/03/03 04:11:09;;;;;;;0.10;0.10;;;;;;;;;;4983808;28;20055;-94
2024/03/03 04:13:35;;;;;;;0.10;0.10;;;;;;;;;;4985330;28;20027;-93
2024/03/03 04:16:06;;;;;;;0.10;0.10;;;5.90;99.90;;;;;;4989772;28;20101;-95
2024/03/03 04:18:32;;;;;;;0.00;0.00;;;;;;;;;;4990383;28;20038;-94
2024/03/03 04:20:58;;;;;;;0.10;0.10;;;;;;;;;;4993255;28;20034;-94
2024/03/03 04:23:24;;;;;;;0.10;0.10;;;;;;;;;;4989957;28;20045;-94
2024/03/03 04:25:50;;;;;;;0.10;0.10;;;;;;;;;;4988693;28;20026;-94
2024/03/03 04:28:18;;;;;;;0.05;0.05;;;;;;;;;;4992145;28;20041;-94
2024/03/03 04:30:44;;;;;;;0.10;0.10;;;;;;;;;;4992918;28;20038;-95
2024/03/03 04:33:12;;;;;;;0.10;0.10;;;;;;;;;;4991326;28;20019;-94
2024/03/03 04:35:42;;;;;;;0.10;0.10;;;;;;;;;;4989685;28;20053;-94
2024/03/03 04:38:08;;;;;;;0.10;0.10;;;;;;;;;;4992398;28;20027;-94
2024/03/03 04:40:36;;;;;;;0.10;0.10;;;;;;;;;;4991701;28;20505;-93
2024/03/03 04:43:02;;;;;;;0.10;0.10;;;;;;;;;;4987940;28;20043;-94
2024/03/03 04:45:28;;;;;;;0.10;0.10;;;;;;;;;;4991184;28;20031;-94
2024/03/03 04:47:54;;;;;;;0.10;0.10;;;;;;;;;;4987505;28;20039;-94
2024/03/03 06:44:16;;;;;;;0.03;0.03;;;;;;;;;;827169;22;21564;-90
2024/03/03 06:46:45;;;;;;;0.10;0.10;;;;;;;;;;5029479;28;20049;-94
2024/03/03 06:49:11;;;;;;;0.00;0.00;;;;;;;;;;5024309;28;20026;-93
2024/03/03 06:51:38;;;;;;;0.10;0.10;;;;;;;;;;5013547;28;20081;-93
2024/03/03 06:54:06;;;;;;;0.10;0.10;;;;;;;;;;5009804;28;20416;-93
2024/03/03 06:56:32;;;;;;;0.10;0.10;;;;;;;;;;5012024;28;20076;-93
2024/03/03 06:58:59;;;;;;;0.10;0.10;;;;;;;;;;5008086;28;20014;-93
2024/03/03 07:01:26;;;;;;;0.10;0.10;;;;;;;;;;5010682;28;20022;-93
2024/03/03 07:06:37;;;;;;;0.10;0.10;;;;;;;;;;5000807;28;20123;-93
2024/03/03 07:09:04;;;;;;;0.10;0.10;;;;;;;;;;5009786;28;20026;-94
2024/03/03 07:11:30;;;;;;;0.10;0.10;;;;;;;;;;5012173;28;20057;-93
2024/03/03 07:13:56;;;;;;;0.10;0.10;;;;;;;;;;5006523;28;20032;-94
2024/03/03 07:16:22;;;;;;;0.10;0.10;;;;;;;;;;5009545;28;20053;-93
2024/03/03 07:18:48;;;;;;;0.00;0.00;;;;;;;;;;5011298;28;20010;-92
2024/03/03 07:21:14;;;;;;;0.10;0.10;;;;;;;;;;5012651;28;20054;-93
2024/03/03 07:23:41;;;;;;;0.10;0.10;;;;;;;;;;5009926;28;20049;-93
2024/03/03 07:26:06;;;;;;;0.10;0.10;;;;;;;;;;5008622;28;20033;-93
2024/03/03 07:28:32;;;;;;;0.10;0.10;;;;;;;;;;5005799;28;20030;-92
2024/03/03 07:30:58;;;;;;;0.10;0.10;;;;;;;;;;5010023;28;20032;-94
2024/03/03 07:33:24;;;;;;;0.10;0.10;;;;;;;;;;5010827;28;20086;-93
2024/03/03 07:35:50;;;;;;;0.03;0.03;;;;;;;;;;5014729;28;20078;-93
2024/03/03 07:38:17;;;;;;;0.10;0.10;;;;;;;;;;5013198;28;20037;-93
2024/03/03 07:40:44;;;;;;;0.10;0.10;;;;;;;;;;5012022;28;20007;-93
2024/03/03 07:43:11;;;;;;;0.08;0.08;;;;;;;;;;5011799;28;20464;-92
2024/03/03 07:45:37;;;;;;;0.10;0.10;;;;;;;;;;5025206;28;20006;-93
2024/03/03 07:48:03;;;;;;;0.10;0.10;;;;;;;;;;5002681;28;20027;-93
2024/03/03 07:50:30;;;;;;;0.10;0.10;;;;;;;;;;5010097;28;20584;-93
2024/03/03 07:52:56;;;;;;;0.10;0.10;;;;;;;;;;5013944;28;20018;-92
2024/03/03 07:55:22;;;;;;;0.10;0.10;;;;;;;;;;5006321;28;20496;-94
2024/03/03 07:57:48;;;;;;;0.10;0.10;;;;;;;;;;5009749;28;20026;-93
2024/03/03 08:00:14;;;;;;;0.10;0.10;;;;;;;;;;5009736;28;20056;-94
2024/03/03 08:02:43;;;;;;;0.10;0.10;;;;;;;;;;5010481;28;20050;-93
2024/03/03 08:05:09;;;;;;;0.10;0.10;;;;;;;;;;5007481;28;20011;-93
2024/03/03 08:07:36;;;;;;;0.10;0.10;;;;;;;;;;5007619;28;20041;-93
2024/03/03 08:10:02;;;;;;;0.10;0.10;;;;;;;;;;5010515;28;20026;-93
2024/03/03 08:12:29;;;;;;;0.10;0.10;;;;;;;;;;5026181;28;20030;-94
2024/03/03 08:14:55;;;;;;;0.10;0.10;;;;;;;;;;5008459;28;20018;-93
2024/03/03 08:17:21;;;;;;;0.10;0.10;;;;;;;;;;5006149;28;20094;-94
2024/03/03 08:19:47;;;;;;;0.10;0.10;;;;;;;;;;5000013;28;20098;-93
2024/03/03 08:22:13;;;;;;;0.10;0.10;;;;;;;;;;5004721;28;20018;-93
2024/03/03 08:24:41;;;;;;;0.10;0.10;;;8.30;99.90;;;;;;5012146;28;20022;-95
2024/03/03 08:27:07;;;;;;;0.00;0.00;;;;;;;;;;5009728;28;20014;-93
2024/03/03 08:29:33;;;;;;;0.10;0.10;;;;;;;;;;5003416;28;20023;-94
2024/03/03 08:31:59;;;;;;;0.10;0.10;;;;;;;;;;5001865;28;20098;-94
2024/03/03 08:34:25;;;;;;;0.10;0.10;;;;;;;;;;5011038;28;20007;-93
2024/03/03 08:36:51;;;;;;;0.10;0.10;;;;;;;;;;5009857;28;20027;-93
2024/03/03 08:39:19;;;;;;;0.00;0.00;;;;;;;;;;5008805;28;20054;-93
2024/03/03 08:41:45;;;;;;;0.10;0.10;;;;;;;;;;5004139;28;20034;-94
2024/03/03 08:44:11;;;;;;;0.10;0.10;;;;;;;;;;5007712;28;20047;-93
2024/03/03 08:46:37;;;;;;;0.00;0.00;;;;;;;;;;5025160;28;20038;-94
2024/03/03 08:49:03;;;;;;;0.10;0.10;;;;;;;;;;5006932;28;20026;-93
2024/03/03 08:51:29;;;;;;;0.10;0.10;;;;;;;;;;5010698;28;20022;-93
2024/03/03 08:53:56;;;;;;;0.10;0.10;;;;;;;;;;5009963;28;20018;-94
2024/03/03 08:56:22;;;;;;;0.10;0.10;;;;;;;;;;5010132;28;20035;-93
2024/03/03 08:58:48;;;;;;;0.00;0.00;;;;;;;;;;5011953;28;20053;-94
2024/03/03 09:01:14;;;;;;;0.10;0.10;;;;;;;;;;5009780;28;20015;-93
2024/03/03 09:03:43;;;;;;;0.00;0.00;;;;;;;;;;5010621;28;20026;-94
2024/03/03 09:06:09;;;;;;;0.10;0.10;;;;;;;;;;5005705;28;20045;-94
2024/03/03 09:08:37;;;;;;;0.10;0.10;;;;;;;;;;5012144;28;20082;-95
2024/03/03 09:11:06;;;;;;;0.10;0.10;;;;;;;;;;5012321;28;20042;-94
2024/03/03 09:13:32;;;;;;;0.00;0.00;;;;;;;;;;5013124;28;20022;-94
2024/03/03 09:15:58;;;;;;;0.00;0.00;;;;;;;;;;5012196;28;20125;-93
2024/03/03 09:18:24;;;;;;;0.10;0.10;;;;;;;;;;5007643;28;20051;-93
2024/03/03 09:21:07;;;;;;;0.00;0.00;;;;;;;;;;5001626;28;20042;-93
2024/03/03 11:02:16;;;;;;;0.00;0.00;;;;;;;;;;4997389;28;20065;-89
2024/03/03 11:04:43;;;;;;;0.00;0.00;;;12.60;99.90;;;;;;5012683;28;20015;-91
2024/03/03 11:07:10;;;;;;;0.00;0.00;;;12.60;99.90;;;;;;4997298;28;20099;-92
2024/03/03 11:09:36;;;;;;;0.00;0.00;;;;;;;;;;5002145;28;20091;-93
2024/03/03 11:12:06;;;;;;;0.00;0.00;;;12.60;99.90;;;;;;5032202;28;20015;-91
2024/03/03 11:14:53;;;;;;;0.00;0.00;;;12.80;99.90;;;;;;4983374;28;20035;-93
2024/03/03 11:17:21;;;;;;;0.00;0.00;;;12.80;99.90;;;;;;4997264;28;20102;-92
2024/03/03 11:19:48;;;;;;;0.00;0.00;;;12.70;99.90;;;;;;4990731;28;20015;-92
2024/03/03 11:22:25;;;;;;;0.00;0.00;;;12.70;99.90;;;;;;4998720;28;20054;-93
2024/03/03 11:25:06;;;;;;;0.00;0.00;;;12.70;99.90;;;;;;4983106;28;20026;-92
2024/03/03 11:27:40;;;;;;;0.00;0.00;;;12.60;99.90;;;;;;4997693;28;20019;-91
2024/03/03 11:30:10;;;;;;;0.00;0.00;;;12.50;99.90;;;;;;5000995;28;20035;-92
2024/03/03 11:32:39;;;;;;;0.00;0.00;;;;;;;;;;4998327;28;20023;-91
2024/03/03 11:35:22;;;;;;;0.00;0.00;;;;;;;;;;5003063;28;20041;-91
2024/03/03 11:37:50;;;;;;;0.00;0.00;;;;;;;;;;4999138;28;20002;-92
2024/03/03 11:40:31;;;;;;;0.00;0.00;;;;;;;;;;4995182;28;20018;-91
2024/03/03 11:42:57;;;;;;;0.00;0.00;;;;;;;;;;5025921;28;20041;-92
2024/03/03 11:46:02;;;;;;;0.00;0.00;;;12.90;99.90;;;;;;5031946;28;20053;-92
2024/03/03 13:53:55;;;;;;;0.00;0.00;;;;;;;;;;4981556;28;20059;-91
2024/03/03 13:59:46;;;;;;;0.00;0.00;;;14.90;99.90;;;;;;4971997;28;20041;-93
2024/03/03 14:02:46;;;;;;;0.00;0.00;;;;;;;;;;4969098;28;20039;-92
2024/03/03 14:10:22;;;;;;;0.00;0.00;;;;;;;;;;4974258;28;20050;-91
2024/03/03 14:12:48;;;;;;;0.00;0.00;;;;;;;;;;4970781;28;20041;-91
2024/03/03 14:15:14;;;;;;;0.00;0.00;;;;;;;;;;4969832;28;20035;-91
2024/03/03 14:17:43;;;;;;;0.00;0.00;;;;;;;;;;4965246;28;20058;-92
2024/03/03 14:20:12;;;;;;;0.00;0.00;;;;;;;;;;4967752;28;20556;-92
2024/03/03 14:22:40;;;;;;;0.00;0.00;;;14.70;99.90;;;;;;4966418;28;20063;-91
2024/03/03 14:25:09;;;;;;;0.00;0.00;;;;;;;;;;4967425;28;20042;-90
2024/03/03 14:27:35;;;;;;;0.00;0.00;;;;;;;;;;4966586;28;20085;-90
2024/03/03 14:30:02;;;;;;;0.00;0.00;;;;;;;;;;4969332;28;20027;-91
2024/03/03 14:32:28;;;;;;;0.00;0.00;;;;;;;;;;4980060;28;20231;-91
2024/03/03 14:34:54;;;;;;;0.00;0.00;;;;;;;;;;4966699;28;20035;-91
2024/03/03 14:37:20;;;;;;;0.00;0.00;;;;;;;;;;4970048;28;20409;-92
2024/03/03 14:39:46;;;;;;;0.00;0.00;;;;;;;;;;4969293;28;20504;-91
2024/03/03 14:42:12;;;;;;;0.00;0.00;;;;;;;;;;4974270;28;20031;-91
2024/03/03 14:44:38;;;;;;;0.00;0.00;;;;;;;;;;4977370;28;20162;-91
2024/03/03 14:47:04;;;;;;;0.00;0.00;;;;;;;;;;4974965;28;20063;-91
2024/03/03 14:49:30;;;;;;;0.00;0.00;;;;;;;;;;4974565;28;20023;-90
2024/03/03 14:51:56;;;;;;;0.00;0.00;;;;;;;;;;4975660;28;20035;-91
2024/03/03 14:54:21;;;;;;;0.00;0.00;;;;;;;;;;4969380;28;20046;-89
2024/03/03 14:56:47;;;;;;;0.00;0.00;;;;;;;;;;4975755;28;20039;-91
2024/03/03 14:59:13;;;;;;;0.00;0.00;;;;;;;;;;4972656;28;20043;-91
2024/03/03 15:01:39;;;;;;;0.00;0.00;;;;;;;;;;4968625;28;20036;-91
2024/03/03 15:04:05;;;;;;;0.00;0.00;;;;;;;;;;4966961;28;20026;-89
2024/03/03 15:06:31;;;;;;;0.00;0.00;;;;;;;;;;4969982;28;20042;-91
2024/03/03 15:08:57;;;;;;;0.00;0.00;;;;;;;;;;4968071;28;20422;-91
2024/03/03 15:11:23;;;;;;;0.00;0.00;;;;;;;;;;4967746;28;20508;-90
2024/03/03 15:13:49;;;;;;;0.00;0.00;;;;;;;;;;4967645;28;20101;-91
2024/03/03 15:16:15;;;;;;;0.00;0.00;;;;;;;;;;4968210;28;20062;-92
2024/03/03 15:18:42;;;;;;;0.00;0.00;;;;;;;;;;4964683;28;20493;-90
2024/03/03 15:21:08;;;;;;;0.00;0.00;;;;;;;;;;4984680;28;20040;-91
2024/03/03 15:23:34;;;;;;;0.00;0.00;;;;;;;;;;4975435;28;20086;-91
2024/03/03 15:26:00;;;;;;;0.00;0.00;;;;;;;;;;4976319;28;20023;-90
2024/03/03 15:28:26;;;;;;;0.00;0.00;;;;;;;;;;4976821;28;20025;-91
2024/03/03 15:30:52;;;;;;;0.00;0.00;;;;;;;;;;4975887;28;20533;-90
2024/03/03 15:33:18;;;;;;;0.00;0.00;;;;;;;;;;4975836;28;20409;-91
2024/03/03 15:35:44;;;;;;;0.00;0.00;;;;;;;;;;4974868;28;20085;-90
2024/03/03 15:38:10;;;;;;;0.00;0.00;;;;;;;;;;4974990;28;20098;-91
2024/03/03 15:40:36;;;;;;;0.00;0.00;;;;;;;;;;4972910;28;20031;-90
2024/03/03 15:43:02;;;;;;;0.00;0.00;;;;;;;;;;4974286;28;20140;-91
2024/03/03 15:45:28;;;;;;;0.00;0.00;;;;;;;;;;4969675;28;20035;-91
2024/03/03 15:51:39;;;;;;;0.00;0.00;;;;;;;;;;4960448;28;20054;-90
2024/03/03 15:54:08;;;;;;;0.00;0.00;;;;;;;;;;4947398;28;20038;-89
2024/03/03 15:56:34;;;;;;;0.00;0.00;;;;;;;;;;4963444;28;20042;-90
2024/03/03 15:59:00;;;;;;;0.00;0.00;;;;;;;;;;4970726;28;20045;-89
2024/03/03 16:01:26;;;;;;;0.00;0.00;;;;;;;;;;4973706;28;20019;-91
2024/03/03 16:03:52;;;;;;;0.00;0.00;;;;;;;;;;4974979;28;20026;-91
2024/03/03 16:06:18;;;;;;;0.00;0.00;;;13.60;99.90;;;;;;4973409;28;20502;-89
2024/03/03 16:08:44;;;;;;;0.00;0.00;;;;;;;;;;4969630;28;20027;-88
2024/03/03 16:11:10;;;;;;;0.00;0.00;;;;;;;;;;4972671;28;20123;-90
2024/03/03 16:13:36;;;;;;;0.00;0.00;;;;;;;;;;4961107;28;20095;-90
2024/03/03 16:16:02;;;;;;;0.00;0.00;;;;;;;;;;4968007;28;20035;-89
2024/03/03 16:18:31;;;;;;;0.00;0.00;;;;;;;;;;4969706;28;20035;-90
2024/03/03 16:20:57;;;;;;;0.00;0.00;;;;;;;;;;4972188;28;20027;-89
2024/03/03 16:23:23;;;;;;;0.00;0.00;;;;;;;;;;4972994;28;20113;-90
2024/03/03 16:25:49;;;;;;;0.00;0.00;;;;;;;;;;4976458;28;20061;-89
2024/03/03 16:28:15;;;;;;;0.00;0.00;;;;;;;;;;4973746;28;20027;-89
2024/03/03 16:30:41;;;;;;;0.00;0.00;;;;;;;;;;4969303;28;20027;-90
2024/03/03 16:33:06;;;;;;;0.00;0.00;;;;;;;;;;4971893;28;20405;-89
2024/03/03 16:35:34;;;;;;;0.00;0.00;;;;;;;;;;4970062;28;20053;-90
2024/03/03 16:38:00;;;;;;;0.00;0.00;;;;;;;;;;4970374;28;20123;-90
2024/03/03 16:40:26;;;;;;;0.00;0.00;;;;;;;;;;4970000;28;20558;-89
2024/03/03 16:42:54;;;;;;;0.00;0.00;;;12.90;99.90;;;;;;4969648;28;20030;-90
2024/03/03 16:45:21;;;;;;;0.00;0.00;;;;;;;;;;4965224;28;20027;-91
2024/03/03 16:47:48;;;;;;;0.00;0.00;;;;;;;;;;4970451;28;20121;-91
2024/03/03 16:50:14;;;;;;;0.00;0.00;;;;;;;;;;4971705;28;20031;-89
2024/03/03 16:52:40;;;;;;;0.00;0.00;;;;;;;;;;4968315;28;20038;-88
2024/03/03 16:55:06;;;;;;;0.00;0.00;;;;;;;;;;4965322;28;20035;-90
2024/03/03 16:57:32;;;;;;;0.00;0.00;;;;;;;;;;4970667;28;20031;-92
2024/03/03 16:59:58;;;;;;;0.00;0.00;;;;;;;;;;4964675;28;20039;-89
2024/03/03 17:02:24;;;;;;;0.00;0.00;;;;;;;;;;4973674;28;20034;-89
2024/03/03 17:04:50;;;;;;;0.00;0.00;;;;;;;;;;4985434;28;20142;-90
2024/03/03 17:07:18;;;;;;;0.00;0.00;;;;;;;;;;4971445;28;20490;-91
2024/03/03 17:09:44;;;;;;;0.00;0.00;;;;;;;;;;4975474;28;20030;-91
2024/03/03 17:12:10;;;;;;;0.00;0.00;;;;;;;;;;4969887;28;20031;-90
2024/03/03 17:14:36;;;;;;;0.00;0.00;;;;;;;;;;4974028;28;20027;-90
2024/03/03 17:17:02;;;;;;;0.00;0.00;;;;;;;;;;4979966;28;20065;-89
2024/03/03 17:19:28;;;;;;;0.00;0.00;;;;;;;;;;4975033;28;20089;-89
2024/03/03 17:21:54;;;;;;;0.00;0.00;;;;;;;;;;4977216;28;20047;-91
2024/03/03 17:24:20;;;;;;;0.00;0.00;;;;;;;;;;4974060;28;20316;-91
2024/03/03 17:26:46;;;;;;;0.00;0.00;;;11.70;99.90;;;;;;4972774;28;20023;-90
2024/03/03 17:29:12;;;;;;;0.00;0.00;;;;;;;;;;4974392;28;20026;-90
2024/03/03 17:31:37;;;;;;;0.00;0.00;;;;;;;;;;4968864;28;20406;-89
2024/03/03 17:34:04;;;;;;;0.00;0.00;;;;;;;;;;4974489;28;20034;-89
2024/03/03 17:36:30;;;;;;;0.00;0.00;;;;;;;;;;4974388;28;20023;-86
2024/03/03 17:38:55;;;;;;;0.00;0.00;;;11.30;99.90;;;;;;4976136;28;20045;-89
2024/03/03 17:41:21;;;;;;;0.00;0.00;;;;;;;;;;4972679;28;20027;-90
2024/03/03 17:43:47;;;;;;;0.00;0.00;;;;;;;;;;4973437;28;20090;-89
2024/03/03 17:46:13;;;;;;;0.00;0.00;;;;;;;;;;4971619;28;20039;-89
2024/03/03 17:48:39;;;;;;;0.00;0.00;;;;;;;;;;4974012;28;20038;-90
2024/03/03 17:51:05;;;;;;;0.00;0.00;;;;;;;;;;4971195;28;20028;-90
2024/03/03 17:53:31;;;;;;;0.00;0.00;;;;;;;;;;4966692;28;20546;-91
2024/03/03 17:55:57;;;;;;;0.03;0.03;;;;;;;;;;4964002;28;20027;-91
2024/03/03 17:58:23;;;;;;;0.00;0.00;;;;;;;;;;4967984;28;20031;-90
2024/03/03 18:00:49;;;;;;;0.00;0.00;;;;;;;;;;4968098;28;20106;-91
2024/03/03 18:03:15;;;;;;;0.00;0.00;;;;;;;;;;4965737;28;20589;-91
2024/03/03 18:05:41;;;;;;;0.00;0.00;;;;;;;;;;4967866;28;20022;-91
2024/03/03 18:08:07;;;;;;;0.05;0.05;;;;;;;;;;4967106;28;20059;-90
2024/03/03 18:10:33;;;;;;;0.00;0.00;;;;;;;;;;4965633;28;20033;-90
2024/03/03 18:12:59;;;;;;;0.00;0.00;;;;;;;;;;4965250;28;20039;-91
2024/03/03 18:15:25;;;;;;;0.00;0.00;;;;;;;;;;4968093;28;20034;-90
2024/03/03 18:17:51;;;;;;;0.00;0.00;;;;;;;;;;4974951;28;20034;-90
2024/03/03 18:20:17;;;;;;;0.00;0.00;;;;;;;;;;4968300;28;20123;-91
2024/03/03 18:22:43;;;;;;;0.05;0.05;;;;;;;;;;4970000;28;20031;-91
2024/03/03 18:25:09;;;;;;;0.00;0.00;;;;;;;;;;4965675;28;20066;-91
2024/03/03 18:27:35;;;;;;;0.00;0.00;;;;;;;;;;4970486;28;20038;-90
2024/03/03 18:30:01;;;;;;;0.00;0.00;;;;;;;;;;4963785;28;20303;-90
2024/03/03 18:32:27;;;;;;;0.00;0.00;;;;;;;;;;4968612;28;20097;-89
2024/03/03 18:34:53;;;;;;;0.00;0.00;;;;;;;;;;4972103;28;20660;-90
2024/03/03 18:37:19;;;;;;;0.10;0.10;;;;;;;;;;4974679;28;21845;-90
2024/03/03 18:39:45;;;;;;;0.10;0.10;;;;;;;;;;4975583;28;20037;-90
2024/03/03 18:42:12;;;;;;;0.00;0.00;;;;;;;;;;4985784;28;20254;-91
2024/03/03 18:44:38;;;;;;;0.03;0.03;;;;;;;;;;4972392;28;20516;-91
2024/03/03 18:47:06;;;;;;;0.00;0.00;;;;;;;;;;4976275;28;20098;-91
2024/03/03 18:49:32;;;;;;;0.00;0.00;;;;;;;;;;4974913;28;20023;-91
2024/03/03 18:52:00;;;;;;;0.00;0.00;;;;;;;;;;4976489;28;20409;-91
2024/03/03 18:54:26;;;;;;;0.00;0.00;;;;;;;;;;4976701;28;20101;-90
2024/03/03 18:56:52;;;;;;;0.00;0.00;;;;;;;;;;4971577;28;20465;-88
2024/03/03 18:59:18;;;;;;;0.00;0.00;;;;;;;;;;4972106;28;20046;-91
2024/03/03 19:01:45;;;;;;;0.00;0.00;;;;;;;;;;4971197;28;20501;-90
2024/03/03 19:04:11;;;;;;;0.00;0.00;;;;;;;;;;4970050;28;20125;-91
2024/03/03 19:06:37;;;;;;;0.00;0.00;;;;;;;;;;4969587;28;20494;-90
2024/03/03 19:09:04;;;;;;;0.00;0.00;;;;;;;;;;4984946;28;20030;-92
2024/03/03 19:11:30;;;;;;;0.00;0.00;;;;;;;;;;4968161;28;20038;-89
2024/03/03 19:13:58;;;;;;;0.00;0.00;;;;;;;;;;4979785;28;20054;-91
2024/03/03 19:16:23;;;;;;;0.00;0.00;;;;;;;;;;4969593;28;20058;-91
2024/03/03 19:18:50;;;;;;;0.00;0.00;;;;;;;;;;4969540;28;20069;-91
2024/03/03 19:21:16;;;;;;;0.08;0.08;;;;;;;;;;4970690;28;20027;-91
2024/03/03 19:23:41;;;;;;;0.10;0.10;;;;;;;;;;4969851;28;20034;-92
2024/03/03 19:26:08;;;;;;;0.03;0.03;;;;;;;;;;4968275;28;20497;-90
2024/03/03 19:28:34;;;;;;;0.10;0.10;;;;;;;;;;4968243;28;20114;-91
2024/03/03 19:31:00;;;;;;;0.00;0.00;;;;;;;;;;4970260;28;20039;-90
2024/03/03 19:33:26;;;;;;;0.10;0.10;;;;;;;;;;4966507;28;20035;-90
2024/03/03 19:35:52;;;;;;;0.00;0.00;;;;;;;;;;4971070;28;20516;-91
2024/03/03 19:38:18;;;;;;;0.00;0.00;;;;;;;;;;4971298;28;20092;-91
2024/03/03 19:40:44;;;;;;;0.10;0.10;;;;;;;;;;4973152;28;20034;-92
2024/03/03 19:43:10;;;;;;;0.00;0.00;;;;;;;;;;4971020;28;20039;-91
2024/03/03 19:45:36;;;;;;;0.10;0.10;;;;;;;;;;4968082;28;20034;-91
2024/03/03 19:48:03;;;;;;;0.00;0.00;;;;;;;;;;4965668;28;20079;-90
2024/03/03 19:50:29;;;;;;;0.10;0.10;;;;;;;;;;4967402;28;20430;-90
2024/03/03 19:52:55;;;;;;;0.00;0.00;;;;;;;;;;4970803;28;20413;-91
2024/03/03 19:55:21;;;;;;;0.10;0.10;;;;;;;;;;4986260;28;20031;-92
2024/03/03 19:57:47;;;;;;;0.00;0.00;;;;;;;;;;4972164;28;20027;-91
2024/03/03 20:00:14;;;;;;;0.10;0.10;;;;;;;;;;4970659;28;20031;-91
2024/03/03 20:02:44;;;;;;;0.05;0.05;;;;;;;;;;4971688;28;20029;-91
2024/03/03 20:05:10;;;;;;;0.10;0.10;;;;;;;;;;4971093;28;20121;-91
2024/03/03 20:07:36;;;;;;;0.10;0.10;;;;;;;;;;4968080;28;20118;-91
2024/03/03 20:10:01;;;;;;;0.10;0.10;;;;;;;;;;4970247;28;20037;-92
2024/03/03 20:12:28;;;;;;;0.10;0.10;;;;;;;;;;4967849;28;20069;-91
2024/03/03 20:14:53;;;;;;;0.10;0.10;;;;;;;;;;4973246;28;20050;-91
2024/03/03 20:17:20;;;;;;;0.10;0.10;;;;;;;;;;4970118;28;20470;-91
2024/03/03 20:19:48;;;;;;;0.08;0.08;;;;;;;;;;4970212;28;20031;-90
2024/03/03 20:22:14;;;;;;;0.10;0.10;;;;;;;;;;4967891;28;20054;-88
2024/03/03 20:24:40;;;;;;;0.00;0.00;;;;;;;;;;4971898;28;20121;-91